createdAt,value
2017-06-16T00:01:00.388Z,14.50
2017-06-16T00:03:28.635Z,18.27
2017-06-16T00:05:56.880Z,17.73
2017-06-16T00:08:25.150Z,20.03
2017-06-16T00:10:53.401Z,26.53
2017-06-16T00:13:21.670Z,27.13
2017-06-16T00:15:49.958Z,15.67
2017-06-16T00:18:18.595Z,16.90
2017-06-16T00:20:46.841Z,19.00
2017-06-16T00:23:15.140Z,21.17
2017-06-16T00:25:43.388Z,17.83
2017-06-16T00:28:11.650Z,21.90
2017-06-16T00:30:39.924Z,20.80
2017-06-16T00:33:08.163Z,20.63
2017-06-16T00:35:36.404Z,19.10
2017-06-16T00:38:04.688Z,17.57
2017-06-16T00:40:32.935Z,21.50
2017-06-16T00:43:01.576Z,16.50
2017-06-16T00:45:30.080Z,13.07
2017-06-16T00:47:58.320Z,15.53
2017-06-16T00:50:26.560Z,7.93
2017-06-16T00:52:55.219Z,7.30
2017-06-16T00:55:23.482Z,9.63
2017-06-16T00:57:51.705Z,11.07
2017-06-16T01:00:20.035Z,8.97
2017-06-16T01:02:48.523Z,10.70
2017-06-16T01:05:16.755Z,8.57
2017-06-16T01:07:45.279Z,9.20
2017-06-16T01:10:13.515Z,11.50
2017-06-16T01:12:41.752Z,8.10
2017-06-16T01:15:10.022Z,7.57
2017-06-16T01:17:38.251Z,5.60
2017-06-16T01:20:06.502Z,8.20
2017-06-16T01:22:35.137Z,4.90
2017-06-16T01:25:03.371Z,4.40
2017-06-16T01:27:31.620Z,5.17
2017-06-16T01:29:59.957Z,5.67
2017-06-16T01:32:28.451Z,5.17
2017-06-16T01:34:56.687Z,4.93
2017-06-16T01:37:24.963Z,5.73
2017-06-16T01:39:53.184Z,3.27
2017-06-16T01:42:21.432Z,4.43
2017-06-16T01:44:49.691Z,5.50
2017-06-16T01:47:17.923Z,4.10
2017-06-16T01:49:46.549Z,3.43
2017-06-16T01:52:14.807Z,4.40
2017-06-16T01:54:43.043Z,6.20
2017-06-16T01:57:11.277Z,3.60
2017-06-16T01:59:39.899Z,3.67
2017-06-16T02:02:08.125Z,4.70
2017-06-16T02:04:36.353Z,4.67
2017-06-16T02:07:05.059Z,4.20
2017-06-16T02:09:33.293Z,3.17
2017-06-16T02:12:01.548Z,3.83
2017-06-16T02:14:29.904Z,5.00
2017-06-16T02:16:58.128Z,8.07
2017-06-16T02:19:26.364Z,8.23
2017-06-16T02:21:54.646Z,5.17
2017-06-16T02:24:22.876Z,6.40
2017-06-16T02:26:51.122Z,3.80
2017-06-16T02:29:19.394Z,4.13
2017-06-16T02:31:47.616Z,4.43
2017-06-16T02:34:16.245Z,3.50
2017-06-16T02:36:44.519Z,6.83
2017-06-16T02:39:13.236Z,5.03
2017-06-16T02:41:41.477Z,10.77
2017-06-16T02:44:09.739Z,5.10
2017-06-16T02:46:37.972Z,4.20
2017-06-16T02:49:06.200Z,8.43
2017-06-16T02:51:34.495Z,4.63
2017-06-16T02:54:02.754Z,16.03
2017-06-16T02:56:30.994Z,12.60
2017-06-16T02:58:59.333Z,13.83
2017-06-16T03:01:27.575Z,17.10
2017-06-16T03:03:55.816Z,19.00
2017-06-16T03:06:24.523Z,23.13
2017-06-16T03:09:13.449Z,28.00
2017-06-16T03:11:41.964Z,21.73
2017-06-16T03:14:10.227Z,26.97
2017-06-16T03:16:38.865Z,29.30
2017-06-16T03:19:07.144Z,18.30
2017-06-16T03:21:41.106Z,30.07
2017-06-16T03:24:09.648Z,34.43
2017-06-16T03:26:37.913Z,31.70
2017-06-16T03:29:06.155Z,30.37
2017-06-16T03:31:34.424Z,25.93
2017-06-16T03:34:02.672Z,25.13
2017-06-16T03:36:31.310Z,27.50
2017-06-16T03:38:59.606Z,30.00
2017-06-16T03:41:27.839Z,29.30
2017-06-16T03:43:56.087Z,22.37
2017-06-16T03:46:24.367Z,26.80
2017-06-16T03:48:52.615Z,35.10
2017-06-16T03:51:20.856Z,29.40
2017-06-16T03:53:49.892Z,12.57
2017-06-16T03:56:18.182Z,26.87
2017-06-16T03:58:46.428Z,26.63
2017-06-16T04:01:14.713Z,14.10
2017-06-16T04:03:42.961Z,14.27
2017-06-16T04:06:11.467Z,11.57
2017-06-16T04:08:39.767Z,12.47
2017-06-16T04:11:08.404Z,12.17
2017-06-16T04:13:36.658Z,9.80
2017-06-16T04:16:04.965Z,9.13
2017-06-16T04:18:33.210Z,15.00
2017-06-16T04:21:01.443Z,8.50
2017-06-16T04:23:29.748Z,20.83
2017-06-16T04:25:57.985Z,9.47
2017-06-16T04:28:26.219Z,11.30
2017-06-16T04:30:54.584Z,18.20
2017-06-16T04:33:22.836Z,19.13
2017-06-16T04:35:51.402Z,10.47
2017-06-16T04:38:19.676Z,9.17
2017-06-16T04:40:47.935Z,9.43
2017-06-16T04:43:16.151Z,9.13
2017-06-16T04:45:44.433Z,9.30
2017-06-16T04:48:12.698Z,9.27
2017-06-16T04:50:40.932Z,14.67
2017-06-16T04:53:09.219Z,12.77
2017-06-16T04:55:37.704Z,9.90
2017-06-16T04:58:05.941Z,9.60
2017-06-16T05:00:34.228Z,10.23
2017-06-16T05:03:02.462Z,18.00
2017-06-16T05:05:30.710Z,9.03
2017-06-16T05:07:58.992Z,10.90
2017-06-16T05:10:27.223Z,9.70
2017-06-16T05:12:55.468Z,10.83
2017-06-16T05:15:23.759Z,8.03
2017-06-16T05:17:52.296Z,17.70
2017-06-16T05:20:20.536Z,20.23
2017-06-16T05:22:54.527Z,14.23
2017-06-16T05:25:22.784Z,17.80
2017-06-16T05:27:51.422Z,9.37
2017-06-16T05:30:19.694Z,12.07
2017-06-16T05:32:47.939Z,10.63
2017-06-16T05:35:16.184Z,11.73
2017-06-16T05:37:45.245Z,15.67
2017-06-16T05:40:13.484Z,12.63
2017-06-16T05:42:41.737Z,18.00
2017-06-16T05:45:10.295Z,8.60
2017-06-16T05:47:38.887Z,11.17
2017-06-16T05:50:07.254Z,10.53
2017-06-16T05:52:35.599Z,9.70
2017-06-16T05:55:03.856Z,10.20
2017-06-16T05:57:32.105Z,7.90
2017-06-16T06:00:00.987Z,14.17
2017-06-16T06:02:29.417Z,11.97
2017-06-16T06:04:57.701Z,11.70
2017-06-16T06:07:25.976Z,10.53
2017-06-16T06:09:54.218Z,11.13
2017-06-16T06:12:22.461Z,11.50
2017-06-16T06:14:51.280Z,6.80
2017-06-16T06:17:19.522Z,10.20
2017-06-16T06:19:47.887Z,7.17
2017-06-16T06:22:16.150Z,7.00
2017-06-16T06:24:45.060Z,5.90
2017-06-16T06:27:13.356Z,8.93
2017-06-16T06:29:41.921Z,6.47
2017-06-16T06:32:10.235Z,10.47
2017-06-16T06:34:38.484Z,7.33
2017-06-16T06:37:06.755Z,7.93
2017-06-16T06:39:35.008Z,10.27
2017-06-16T06:42:03.440Z,6.10
2017-06-16T06:44:32.116Z,6.93
2017-06-16T06:47:00.390Z,9.90
2017-06-16T06:49:29.143Z,15.00
2017-06-16T06:51:57.404Z,7.23
2017-06-16T06:54:25.627Z,9.90
2017-06-16T06:56:53.976Z,6.73
2017-06-16T06:59:22.225Z,11.33
2017-06-16T07:01:50.463Z,13.77
2017-06-16T07:04:18.804Z,9.93
2017-06-16T07:06:47.075Z,11.33
2017-06-16T07:09:15.567Z,7.20
2017-06-16T07:11:43.976Z,12.77
2017-06-16T07:14:12.352Z,16.63
2017-06-16T07:16:40.979Z,5.80
2017-06-16T07:19:09.215Z,6.43
2017-06-16T07:21:38.876Z,11.13
2017-06-16T07:24:07.183Z,7.37
2017-06-16T07:26:35.956Z,9.10
2017-06-16T07:29:04.372Z,6.00
2017-06-16T07:31:33.611Z,5.57
2017-06-16T07:34:01.971Z,8.17
2017-06-16T07:36:30.804Z,7.50
2017-06-16T07:38:59.061Z,7.83
2017-06-16T07:41:27.333Z,4.67
2017-06-16T07:43:55.609Z,10.40
2017-06-16T07:46:24.514Z,9.20
2017-06-16T07:48:53.127Z,6.97
2017-06-16T07:51:21.684Z,8.30
2017-06-16T07:53:50.532Z,7.93
2017-06-16T07:56:19.095Z,4.03
2017-06-16T07:58:47.367Z,6.70
2017-06-16T08:01:16.018Z,6.43
2017-06-16T08:03:44.356Z,7.13
2017-06-16T08:06:12.681Z,7.47
2017-06-16T08:08:40.901Z,7.43
2017-06-16T08:11:09.163Z,8.07
2017-06-16T08:13:37.455Z,8.17
2017-06-16T08:16:05.705Z,10.40
2017-06-16T08:18:34.073Z,9.17
2017-06-16T08:21:08.686Z,8.80
2017-06-16T08:23:37.365Z,5.70
2017-06-16T08:26:06.124Z,5.20
2017-06-16T08:28:34.419Z,7.83
2017-06-16T08:31:02.908Z,7.30
2017-06-16T08:33:31.149Z,8.27
2017-06-16T08:35:59.802Z,6.23
2017-06-16T08:38:28.055Z,10.87
2017-06-16T08:40:56.520Z,7.13
2017-06-16T08:43:25.259Z,8.93
2017-06-16T08:45:53.488Z,10.27
2017-06-16T08:48:21.730Z,7.63
2017-06-16T08:50:49.995Z,6.00
2017-06-16T08:53:18.244Z,9.00
2017-06-16T08:55:46.519Z,5.97
2017-06-16T08:58:14.841Z,8.17
2017-06-16T09:00:43.079Z,7.17
2017-06-16T09:03:11.700Z,6.40
2017-06-16T09:05:40.501Z,7.67
2017-06-16T09:08:08.996Z,9.73
2017-06-16T09:10:37.249Z,9.23
2017-06-16T09:13:06.882Z,6.57
2017-06-16T09:15:35.979Z,6.87
2017-06-16T09:18:04.211Z,6.17
2017-06-16T09:20:32.621Z,4.30
2017-06-16T09:23:00.840Z,6.07
2017-06-16T09:25:29.125Z,5.13
2017-06-16T09:27:57.414Z,5.70
2017-06-16T09:30:25.725Z,8.43
2017-06-16T09:32:53.948Z,7.17
2017-06-16T09:35:22.276Z,7.67
2017-06-16T09:37:50.566Z,8.77
2017-06-16T09:40:18.789Z,6.93
2017-06-16T09:42:47.075Z,5.67
2017-06-16T09:45:15.311Z,6.93
2017-06-16T09:47:43.829Z,8.23
2017-06-16T09:50:12.089Z,9.00
2017-06-16T09:52:40.355Z,5.83
2017-06-16T09:55:08.603Z,5.90
2017-06-16T09:57:37.018Z,8.87
2017-06-16T10:00:05.254Z,5.57
2017-06-16T10:02:33.634Z,8.77
2017-06-16T10:05:01.940Z,5.90
2017-06-16T10:07:30.577Z,10.97
2017-06-16T10:09:58.840Z,4.73
2017-06-16T10:12:27.106Z,4.97
2017-06-16T10:14:55.344Z,6.13
2017-06-16T10:17:23.596Z,7.70
2017-06-16T10:19:51.943Z,4.33
2017-06-16T10:22:20.183Z,5.43
2017-06-16T10:24:48.464Z,5.77
2017-06-16T10:27:16.760Z,10.37
2017-06-16T10:29:45.001Z,5.33
2017-06-16T10:32:13.656Z,5.37
2017-06-16T10:34:41.911Z,6.97
2017-06-16T10:37:10.307Z,5.17
2017-06-16T10:39:38.540Z,9.53
2017-06-16T10:42:06.828Z,4.93
2017-06-16T10:44:35.059Z,5.13
2017-06-16T10:47:03.703Z,3.50
2017-06-16T10:49:31.983Z,4.87
2017-06-16T10:52:00.207Z,5.73
2017-06-16T10:54:28.470Z,5.27
2017-06-16T10:56:56.730Z,5.70
2017-06-16T10:59:24.975Z,3.30
2017-06-16T11:01:53.369Z,3.83
2017-06-16T11:04:21.755Z,5.10
2017-06-16T11:06:50.036Z,4.73
2017-06-16T11:09:18.302Z,7.90
2017-06-16T11:11:46.616Z,5.07
2017-06-16T11:14:14.918Z,6.40
2017-06-16T11:16:43.152Z,4.03
2017-06-16T11:19:11.517Z,3.90
2017-06-16T11:21:39.737Z,4.20
2017-06-16T11:24:07.976Z,5.87
2017-06-16T11:26:36.241Z,4.33
2017-06-16T11:29:04.520Z,5.17
2017-06-16T11:31:32.743Z,3.57
2017-06-16T11:34:01.392Z,5.60
2017-06-16T11:36:29.638Z,2.80
2017-06-16T11:38:57.912Z,7.03
2017-06-16T11:41:26.200Z,4.23
2017-06-16T11:43:54.434Z,3.20
2017-06-16T11:46:22.672Z,3.47
2017-06-16T11:48:51.518Z,5.70
2017-06-16T11:51:20.040Z,2.67
2017-06-16T11:53:49.001Z,6.40
2017-06-16T11:56:17.291Z,3.93
2017-06-16T11:58:45.520Z,5.37
2017-06-16T12:01:13.767Z,5.00
2017-06-16T12:03:42.458Z,3.97
2017-06-16T12:06:11.899Z,3.13
2017-06-16T12:08:40.424Z,5.87
2017-06-16T12:11:08.696Z,3.33
2017-06-16T12:13:36.975Z,2.80
2017-06-16T12:16:05.463Z,2.50
2017-06-16T12:18:34.285Z,2.63
2017-06-16T12:21:02.525Z,6.43
2017-06-16T12:23:30.781Z,3.27
2017-06-16T12:26:00.130Z,2.13
2017-06-16T12:28:28.768Z,2.60
2017-06-16T12:30:57.045Z,3.67
2017-06-16T12:33:25.323Z,7.50
2017-06-16T12:35:53.563Z,2.97
2017-06-16T12:38:21.918Z,5.40
2017-06-16T12:40:50.260Z,1.97
2017-06-16T12:43:18.884Z,1.73
2017-06-16T12:45:47.130Z,6.03
2017-06-16T12:48:15.499Z,2.30
2017-06-16T12:50:43.766Z,1.20
2017-06-16T12:53:12.005Z,2.23
2017-06-16T12:55:40.290Z,2.37
2017-06-16T12:58:08.535Z,1.60
2017-06-16T13:00:37.392Z,1.83
2017-06-16T13:03:05.684Z,1.50
2017-06-16T13:05:33.916Z,2.50
2017-06-16T13:08:02.721Z,1.87
2017-06-16T13:10:31.008Z,1.63
2017-06-16T13:12:59.275Z,2.20
2017-06-16T13:15:27.551Z,1.50
2017-06-16T13:17:55.825Z,3.50
2017-06-16T13:20:24.113Z,3.67
2017-06-16T13:22:52.364Z,2.47
2017-06-16T13:25:20.962Z,4.43
2017-06-16T13:27:49.752Z,6.73
2017-06-16T13:30:17.982Z,3.23
2017-06-16T13:32:46.255Z,2.13
2017-06-16T13:35:14.511Z,2.37
2017-06-16T13:37:43.938Z,2.70
2017-06-16T13:40:12.195Z,4.00
2017-06-16T13:42:40.431Z,3.57
2017-06-16T13:45:08.712Z,3.50
2017-06-16T13:47:36.979Z,2.63
2017-06-16T13:50:05.258Z,2.60
2017-06-16T13:52:33.533Z,2.70
2017-06-16T13:55:01.779Z,3.50
2017-06-16T13:57:30.027Z,2.07
2017-06-16T13:59:58.260Z,4.13
2017-06-16T14:02:26.533Z,5.00
2017-06-16T14:04:54.775Z,4.80
2017-06-16T14:07:23.028Z,4.30
2017-06-16T14:09:51.291Z,5.07
2017-06-16T14:12:19.528Z,3.13
2017-06-16T14:14:47.779Z,3.17
2017-06-16T14:17:16.095Z,1.97
2017-06-16T14:19:44.510Z,3.17
2017-06-16T14:22:13.128Z,3.10
2017-06-16T14:24:41.398Z,2.33
2017-06-16T14:27:09.635Z,3.37
2017-06-16T14:29:37.876Z,3.60
2017-06-16T14:32:06.176Z,2.60
2017-06-16T14:34:34.402Z,3.70
2017-06-16T14:37:02.658Z,7.97
2017-06-16T14:39:30.933Z,3.90
2017-06-16T14:41:59.171Z,4.13
2017-06-16T14:44:27.411Z,5.13
2017-06-16T14:46:55.708Z,5.53
2017-06-16T14:49:24.203Z,2.00
2017-06-16T14:51:52.451Z,2.20
2017-06-16T14:54:20.973Z,3.17
2017-06-16T14:56:49.563Z,4.30
2017-06-16T14:59:17.815Z,2.80
2017-06-16T15:01:46.185Z,2.63
2017-06-16T15:04:14.608Z,2.27
2017-06-16T15:06:42.849Z,3.40
2017-06-16T15:09:11.192Z,5.03
2017-06-16T15:11:39.429Z,3.30
2017-06-16T15:14:07.672Z,2.23
2017-06-16T15:16:35.980Z,2.63
2017-06-16T15:19:04.428Z,4.73
2017-06-16T15:21:35.167Z,6.97
2017-06-16T15:24:03.658Z,8.70
2017-06-16T15:26:31.877Z,4.40
2017-06-16T15:29:00.457Z,6.23
2017-06-16T15:31:28.680Z,3.40
2017-06-16T15:33:57.454Z,8.70
2017-06-16T15:36:26.126Z,3.17
2017-06-16T15:38:54.351Z,4.13
2017-06-16T15:41:23.020Z,8.20
2017-06-16T15:43:51.386Z,5.17
2017-06-16T15:46:19.618Z,4.53
2017-06-16T15:48:47.935Z,4.23
2017-06-16T15:51:16.226Z,4.80
2017-06-16T15:53:44.590Z,4.57
2017-06-16T15:56:12.821Z,5.20
2017-06-16T16:06:31.449Z,3.80
2017-06-16T16:08:59.684Z,4.10
2017-06-16T16:11:28.320Z,7.83
2017-06-16T16:13:56.599Z,5.73
2017-06-16T16:16:25.301Z,3.40
2017-06-16T16:18:53.705Z,4.53
2017-06-16T16:21:22.050Z,4.63
2017-06-16T16:23:50.333Z,5.63
2017-06-16T16:26:18.581Z,7.27
2017-06-16T16:28:46.914Z,6.87
2017-06-16T16:31:15.158Z,5.70
2017-06-16T16:33:43.399Z,4.33
2017-06-16T16:36:11.668Z,6.23
2017-06-16T16:38:39.895Z,4.27
2017-06-16T16:41:08.569Z,6.67
2017-06-16T16:43:36.875Z,4.87
2017-06-16T16:46:05.178Z,4.80
2017-06-16T16:48:33.913Z,4.43
2017-06-16T16:51:02.191Z,4.67
2017-06-16T16:53:31.119Z,4.27
2017-06-16T16:55:59.356Z,7.57
2017-06-16T16:58:27.635Z,5.53
2017-06-16T17:00:55.877Z,4.40
2017-06-16T17:03:24.126Z,4.53
2017-06-16T17:05:52.522Z,7.63
2017-06-16T17:08:20.771Z,5.47
2017-06-16T17:10:49.021Z,3.33
2017-06-16T17:13:17.275Z,3.37
2017-06-16T17:15:45.519Z,6.10
2017-06-16T17:18:13.780Z,4.70
2017-06-16T17:20:42.069Z,5.70
2017-06-16T17:23:10.334Z,4.97
2017-06-16T17:25:38.579Z,6.90
2017-06-16T17:28:06.862Z,6.43
2017-06-16T17:30:35.107Z,3.70
2017-06-16T17:33:03.754Z,3.50
2017-06-16T17:35:32.290Z,5.57
2017-06-16T17:38:00.620Z,3.53
2017-06-16T17:40:28.860Z,3.63
2017-06-16T17:42:57.160Z,6.33
2017-06-16T17:45:25.395Z,5.60
2017-06-16T17:47:53.659Z,4.87
2017-06-16T17:50:21.932Z,3.10
2017-06-16T17:52:50.830Z,4.30
2017-06-16T17:55:19.073Z,8.53
2017-06-16T17:57:47.380Z,2.97
2017-06-16T18:00:15.609Z,5.60
2017-06-16T18:02:43.858Z,5.60
2017-06-16T18:05:12.530Z,4.87
2017-06-16T18:07:40.912Z,4.80
2017-06-16T18:10:09.152Z,7.30
2017-06-16T18:12:37.451Z,8.90
2017-06-16T18:15:06.471Z,4.40
2017-06-16T18:17:35.126Z,5.53
2017-06-16T18:20:03.408Z,5.93
2017-06-16T18:22:31.645Z,6.20
2017-06-16T18:25:00.048Z,4.07
2017-06-16T18:27:28.336Z,10.63
2017-06-16T18:29:56.573Z,8.03
2017-06-16T18:32:24.807Z,6.33
2017-06-16T18:34:53.088Z,6.80
2017-06-16T18:37:21.338Z,5.37
2017-06-16T18:39:49.640Z,7.50
2017-06-16T18:42:17.918Z,11.10
2017-06-16T18:44:46.243Z,4.37
2017-06-16T18:47:14.543Z,3.03
2017-06-16T18:49:42.811Z,6.60
2017-06-16T18:52:11.042Z,4.60
2017-06-16T18:54:39.304Z,5.13
2017-06-16T18:57:08.276Z,5.20
2017-06-16T18:59:36.512Z,5.77
2017-06-16T19:02:04.937Z,10.30
2017-06-16T19:04:34.205Z,5.90
2017-06-16T19:07:02.436Z,6.27
2017-06-16T19:09:30.686Z,5.37
2017-06-16T19:11:59.122Z,9.03
2017-06-16T19:14:27.428Z,6.30
2017-06-16T19:16:56.037Z,4.70
2017-06-16T19:19:24.338Z,11.27
2017-06-16T19:21:52.599Z,8.40
2017-06-16T19:24:20.834Z,6.43
2017-06-16T19:26:49.527Z,7.60
2017-06-16T19:29:17.754Z,6.40
2017-06-16T19:31:46.056Z,6.23
2017-06-16T19:34:14.356Z,6.47
2017-06-16T19:36:42.597Z,5.80
2017-06-16T19:39:10.842Z,3.30
2017-06-16T19:41:39.140Z,4.87
2017-06-16T19:44:07.379Z,6.10
2017-06-16T19:46:35.712Z,6.77
2017-06-16T19:49:03.985Z,6.33
2017-06-16T19:51:32.225Z,3.20
2017-06-16T19:54:00.464Z,4.97
2017-06-16T19:56:29.481Z,7.90
2017-06-16T19:58:58.123Z,6.57
2017-06-16T20:01:26.611Z,5.73
2017-06-16T20:03:54.908Z,5.63
2017-06-16T20:06:23.148Z,6.30
2017-06-16T20:08:51.561Z,6.40
2017-06-16T20:11:19.852Z,13.10
2017-06-16T20:13:48.098Z,3.50
2017-06-16T20:16:16.343Z,6.60
2017-06-16T20:18:44.911Z,7.33
2017-06-16T20:21:13.158Z,7.27
2017-06-16T20:23:41.798Z,10.30
2017-06-16T20:26:10.395Z,10.30
2017-06-16T20:28:38.819Z,7.37
2017-06-16T20:31:07.055Z,6.23
2017-06-16T20:33:35.446Z,7.83
2017-06-16T20:36:03.695Z,7.77
2017-06-16T20:38:31.960Z,5.53
2017-06-16T20:41:00.219Z,8.97
2017-06-16T20:43:28.459Z,9.73
2017-06-16T20:45:57.094Z,8.67
2017-06-16T20:48:25.448Z,8.37
2017-06-16T20:50:53.698Z,75.20
2017-06-16T20:53:21.944Z,8.57
2017-06-16T20:55:50.261Z,8.57
2017-06-16T20:58:18.499Z,8.87
2017-06-16T21:00:46.754Z,11.37
2017-06-16T21:03:15.128Z,9.57
2017-06-16T21:05:43.367Z,7.90
2017-06-16T21:08:11.601Z,8.67
2017-06-16T21:10:40.317Z,12.43
2017-06-16T21:13:08.582Z,12.00
2017-06-16T21:15:36.815Z,5.13
2017-06-16T21:18:05.126Z,5.77
2017-06-16T21:20:33.362Z,6.97
2017-06-16T21:23:01.657Z,10.67
2017-06-16T21:25:29.949Z,6.23
2017-06-16T21:27:58.168Z,7.17
2017-06-16T21:30:26.412Z,9.10
2017-06-16T21:32:55.202Z,9.50
2017-06-16T21:35:23.713Z,10.60
2017-06-16T21:37:51.978Z,5.97
2017-06-16T21:40:20.647Z,10.37
2017-06-16T21:42:49.322Z,8.70
2017-06-16T21:45:17.574Z,7.10
2017-06-16T21:47:45.851Z,6.03
2017-06-16T21:50:14.247Z,8.07
2017-06-16T21:52:42.503Z,10.67
2017-06-16T21:55:10.783Z,10.00
2017-06-16T21:57:39.056Z,8.30
2017-06-16T22:00:07.289Z,9.87
2017-06-16T22:02:35.762Z,7.73
2017-06-16T22:05:04.131Z,8.47
2017-06-16T22:07:32.765Z,8.33
2017-06-16T22:10:01.176Z,9.10
2017-06-16T22:12:29.407Z,9.30
2017-06-16T22:14:57.665Z,10.87
2017-06-16T22:17:25.948Z,8.37
2017-06-16T22:19:54.200Z,11.23
2017-06-16T22:22:22.545Z,7.50
2017-06-16T22:24:50.893Z,14.17
2017-06-16T22:27:19.171Z,10.13
2017-06-16T22:29:47.412Z,7.87
2017-06-16T22:32:15.683Z,9.93
2017-06-16T22:34:43.918Z,8.40
2017-06-16T22:37:12.152Z,12.23
2017-06-16T22:39:40.687Z,7.30
2017-06-16T22:42:09.365Z,10.30
2017-06-16T22:44:37.600Z,7.87
2017-06-16T22:47:05.885Z,9.80
2017-06-16T22:49:34.156Z,13.73
2017-06-16T22:52:02.844Z,7.53
2017-06-16T22:54:31.120Z,8.10
2017-06-16T22:56:59.383Z,4.10
2017-06-16T22:59:27.667Z,7.40
2017-06-16T23:01:55.932Z,7.90
2017-06-16T23:04:24.167Z,7.53
2017-06-16T23:06:52.417Z,11.13
2017-06-16T23:09:20.699Z,10.83
2017-06-16T23:11:48.935Z,7.17
2017-06-16T23:14:17.174Z,6.40
2017-06-16T23:16:45.850Z,7.43
2017-06-16T23:19:14.167Z,8.70
2017-06-16T23:21:42.495Z,8.53
2017-06-16T23:24:10.773Z,6.63
2017-06-16T23:26:39.016Z,8.80
2017-06-16T23:29:07.532Z,10.90
2017-06-16T23:31:35.814Z,7.43
2017-06-16T23:34:04.051Z,9.30
2017-06-16T23:36:32.563Z,9.90
2017-06-16T23:39:00.840Z,9.03
2017-06-16T23:41:29.076Z,5.90
2017-06-16T23:43:57.534Z,8.03
2017-06-16T23:46:25.795Z,8.80
2017-06-16T23:48:54.431Z,7.73
2017-06-16T23:51:22.665Z,10.80
2017-06-16T23:53:50.967Z,7.87
2017-06-16T23:56:19.195Z,6.27
2017-06-16T23:58:47.451Z,11.70
